Time;durP1;ratioP1;P1;durP2;ratioP2;P2;SDS_P1;SDS_P2;PMS_P1;PMS_P2;Temp;Humidity;BMP_temperature;BMP_pressure;BME280_temperature;BME280_humidity;BME280_pressure;Samples;Min_cycle;Max_cycle;Signal;HPM_P1;HPM_P2
2021/03/13 00:00:52;;;;;;;3.97;1.15;;;6.30;99.10;;;;;;5028913;28;20472;-83
2021/03/13 00:03:18;;;;;;;3.92;1.25;;;6.30;99.10;;;;;;5029214;28;20029;-84
2021/03/13 00:05:45;;;;;;;9.32;1.60;;;6.40;99.20;;;;;;5028875;28;20033;-84
2021/03/13 00:08:12;;;;;;;6.20;1.23;;;6.40;99.10;;;;;;5012372;28;20448;-84
2021/03/13 00:10:40;;;;;;;10.25;1.73;;;6.40;99.30;;;;;;5013148;28;20509;-85
2021/03/13 00:13:07;;;;;;;3.53;1.20;;;6.50;99.10;;;;;;5012240;28;20037;-85
2021/03/13 00:15:33;;;;;;;6.93;1.98;;;6.40;99.00;;;;;;5029637;28;20079;-83
2021/03/13 00:18:00;;;;;;;9.13;2.05;;;6.50;99.10;;;;;;5013532;28;20026;-85
2021/03/13 00:20:27;;;;;;;8.00;1.85;;;6.50;99.10;;;;;;5030442;28;20087;-83
2021/03/13 00:22:54;;;;;;;6.32;2.10;;;6.50;99.10;;;;;;5013279;28;20477;-83
2021/03/13 00:25:21;;;;;;;7.10;1.38;;;6.50;99.10;;;;;;5013802;28;20451;-84
2021/03/13 00:27:48;;;;;;;8.50;1.85;;;6.50;99.10;;;;;;5029464;28;20516;-85
2021/03/13 00:30:26;;;;;;;8.27;1.52;;;6.60;99.10;;;;;;4997873;28;20074;-85
2021/03/13 00:33:03;;;;;;;4.05;1.30;;;6.60;99.10;;;;;;5029733;28;20033;-83
2021/03/13 00:35:30;;;;;;;10.20;2.25;;;6.60;99.10;;;;;;5030897;28;20075;-84
2021/03/13 00:37:57;;;;;;;8.05;2.03;;;6.60;99.10;;;;;;4997185;28;20103;-85
2021/03/13 00:40:24;;;;;;;13.77;3.08;;;6.60;99.00;;;;;;5012924;28;20116;-85
2021/03/13 00:42:50;;;;;;;6.85;1.75;;;6.60;99.00;;;;;;5013408;28;20030;-86
2021/03/13 00:45:19;;;;;;;14.05;2.95;;;6.70;99.00;;;;;;5012858;28;20403;-83
2021/03/13 00:47:46;;;;;;;4.95;1.35;;;6.70;99.00;;;;;;5029749;28;20476;-83
2021/03/13 00:50:13;;;;;;;11.05;1.92;;;6.70;99.00;;;;;;5030159;28;20038;-82
2021/03/13 00:52:39;;;;;;;9.23;2.72;;;6.70;98.90;;;;;;5030092;28;20032;-83
2021/03/13 00:55:06;;;;;;;9.35;2.22;;;6.80;98.90;;;;;;5013369;28;20037;-84
2021/03/13 00:57:32;;;;;;;11.25;2.38;;;6.70;98.90;;;;;;5029578;28;20028;-82
2021/03/13 00:59:58;;;;;;;5.80;1.75;;;6.70;98.90;;;;;;5028395;28;20362;-84
2021/03/13 01:02:24;;;;;;;4.13;1.73;;;6.70;98.90;;;;;;4996176;28;20036;-82
2021/03/13 01:04:50;;;;;;;10.32;2.17;;;6.60;98.90;;;;;;5029948;28;20022;-84
2021/03/13 01:07:16;;;;;;;8.40;1.33;;;6.60;99.00;;;;;;5029698;28;20034;-84
2021/03/13 01:09:41;;;;;;;6.28;1.58;;;6.50;99.00;;;;;;5029456;28;20033;-84
2021/03/13 01:12:07;;;;;;;6.85;1.45;;;6.40;99.10;;;;;;4996651;28;20026;-82
2021/03/13 01:14:33;;;;;;;6.70;2.33;;;6.40;99.10;;;;;;5028965;28;20022;-82
2021/03/13 01:16:59;;;;;;;9.88;2.45;;;6.30;99.20;;;;;;5028822;28;20030;-84
2021/03/13 01:19:25;;;;;;;4.97;0.90;;;6.30;99.40;;;;;;5012732;28;20116;-82
2021/03/13 01:21:51;;;;;;;4.93;1.58;;;6.40;99.50;;;;;;5029240;28;20559;-81
2021/03/13 01:24:17;;;;;;;4.43;1.00;;;6.40;99.50;;;;;;5012836;28;20061;-86
2021/03/13 01:26:42;;;;;;;8.93;1.70;;;6.40;99.50;;;;;;5030033;28;20053;-83
2021/03/13 01:29:08;;;;;;;11.88;1.88;;;6.30;99.30;;;;;;5029225;28;20064;-84
2021/03/13 01:31:34;;;;;;;9.70;1.20;;;6.30;99.40;;;;;;5028950;28;20029;-84
2021/03/13 01:34:00;;;;;;;6.57;1.17;;;6.20;99.50;;;;;;5030341;28;20088;-85
2021/03/13 01:36:26;;;;;;;6.93;1.15;;;6.20;99.70;;;;;;5029001;28;20458;-82
2021/03/13 01:38:52;;;;;;;6.03;1.63;;;6.20;99.70;;;;;;5028661;28;20041;-84
2021/03/13 01:41:18;;;;;;;4.78;1.50;;;6.20;99.70;;;;;;5012219;28;20032;-84
2021/03/13 01:43:44;;;;;;;12.30;2.35;;;6.20;99.60;;;;;;5029343;28;20029;-83
2021/03/13 01:46:10;;;;;;;7.90;2.58;;;6.20;99.70;;;;;;5028689;28;20033;-84
2021/03/13 01:48:47;;;;;;;11.90;2.58;;;6.20;99.80;;;;;;5028828;28;20025;-83
2021/03/13 01:51:13;;;;;;;5.35;1.67;;;6.20;99.90;;;;;;5028606;28;20057;-86
2021/03/13 01:53:39;;;;;;;12.00;1.90;;;6.30;99.90;;;;;;5027824;28;20076;-84
2021/03/13 01:56:05;;;;;;;5.65;1.42;;;6.30;99.80;;;;;;5027727;28;20025;-83
2021/03/13 01:58:31;;;;;;;8.50;1.60;;;6.40;99.80;;;;;;5027562;28;20040;-81
2021/03/13 02:00:57;;;;;;;8.18;1.73;;;6.50;99.70;;;;;;5028594;28;20487;-84
2021/03/13 02:03:23;;;;;;;4.85;1.67;;;6.50;99.70;;;;;;5029322;28;20026;-82
2021/03/13 02:05:50;;;;;;;12.93;2.28;;;6.60;99.60;;;;;;5010991;28;20036;-85
2021/03/13 02:08:25;;;;;;;11.52;1.92;;;6.60;99.50;;;;;;5027625;28;20313;-87
2021/03/13 02:11:24;;;;;;;8.93;1.80;;;6.60;99.40;;;;;;5027530;28;20041;-84
2021/03/13 02:14:06;;;;;;;;;;;6.50;99.40;;;;;;5031851;28;20049;-83
2021/03/13 02:16:53;;;;;;;5.25;1.75;;;6.60;99.40;;;;;;5032276;28;19991;-86
2021/03/13 02:19:37;;;;;;;9.20;1.88;;;6.50;99.40;;;;;;5032320;28;20464;-83
2021/03/13 02:22:07;;;;;;;7.63;1.75;;;6.50;99.40;;;;;;5030628;28;20052;-85
2021/03/13 02:24:52;;;;;;;4.80;1.30;;;6.50;99.30;;;;;;5032415;28;20383;-84
2021/03/13 02:27:28;;;;;;;5.45;1.85;;;6.40;99.30;;;;;;5030928;28;20022;-82
2021/03/13 02:30:03;;;;;;;6.45;1.33;;;6.40;99.30;;;;;;5032179;28;20021;-83
2021/03/13 02:32:50;;;;;;;7.68;1.80;;;6.40;99.40;;;;;;5032246;28;20052;-86
2021/03/13 02:35:25;;;;;;;4.30;1.15;;;6.40;99.50;;;;;;5030576;28;20048;-82
2021/03/13 02:37:59;;;;;;;10.82;1.85;;;6.50;99.40;;;;;;5030755;28;20430;-85
2021/03/13 02:40:28;;;;;;;7.28;1.75;;;6.50;99.40;;;;;;5030654;28;20022;-86
2021/03/13 02:42:57;;;;;;;6.35;1.48;;;6.50;99.30;;;;;;5030322;28;20017;-83
2021/03/13 02:45:29;;;;;;;5.82;1.65;;;6.50;99.30;;;;;;5030218;28;20033;-84
2021/03/13 02:47:56;;;;;;;5.93;1.25;;;6.60;99.30;;;;;;5031860;28;20407;-85
2021/03/13 02:50:24;;;;;;;9.25;1.38;;;6.60;99.30;;;;;;5030647;28;20403;-83
2021/03/13 02:52:52;;;;;;;8.70;1.38;;;6.60;99.30;;;;;;5030625;28;20029;-81
2021/03/13 02:55:21;;;;;;;6.60;1.20;;;6.70;99.10;;;;;;5031839;28;20022;-85
2021/03/13 02:57:49;;;;;;;7.60;1.35;;;6.60;99.10;;;;;;5030302;28;20075;-84
2021/03/13 03:00:19;;;;;;;4.75;1.13;;;6.60;99.20;;;;;;5030431;28;20076;-82
2021/03/13 03:02:48;;;;;;;5.28;1.33;;;6.50;99.20;;;;;;5030978;28;20017;-84
2021/03/13 03:05:17;;;;;;;7.07;1.20;;;6.50;99.30;;;;;;5031360;28;20033;-84
2021/03/13 03:07:45;;;;;;;8.02;1.35;;;6.50;99.40;;;;;;5013026;28;20429;-80
2021/03/13 03:10:13;;;;;;;4.70;1.05;;;6.50;99.50;;;;;;5013302;28;20033;-87
2021/03/13 03:12:41;;;;;;;3.55;0.98;;;6.40;99.50;;;;;;5031179;28;20033;-85
2021/03/13 03:15:08;;;;;;;6.10;1.40;;;6.40;99.60;;;;;;5029962;28;20499;-82
2021/03/13 03:17:37;;;;;;;3.95;1.20;;;6.40;99.70;;;;;;4997574;28;20084;-83
2021/03/13 03:20:07;;;;;;;3.28;0.68;;;6.40;99.80;;;;;;5031286;28;20021;-84
2021/03/13 03:22:34;;;;;;;;;;;6.30;99.80;;;;;;5031555;28;20476;-84
2021/03/13 03:25:00;;;;;;;4.93;0.80;;;6.40;99.90;;;;;;5029076;28;19915;-87
2021/03/13 03:27:26;;;;;;;6.25;0.80;;;6.40;99.80;;;;;;5013984;28;20030;-80
2021/03/13 03:29:52;;;;;;;4.40;0.68;;;6.40;99.90;;;;;;4997009;28;20033;-81
2021/03/13 03:32:17;;;;;;;2.97;0.80;;;6.40;99.90;;;;;;5029606;28;20025;-83
2021/03/13 03:34:43;;;;;;;3.83;0.70;;;6.40;99.90;;;;;;5030219;28;20053;-81
2021/03/13 03:37:09;;;;;;;2.25;0.77;;;6.40;99.90;;;;;;5029601;28;20527;-81
2021/03/13 03:39:34;;;;;;;3.15;0.73;;;6.40;99.90;;;;;;4996104;28;20022;-84
2021/03/13 03:42:03;;;;;;;4.65;0.80;;;6.40;99.90;;;;;;5029662;28;20046;-81
2021/03/13 03:44:38;;;;;;;2.30;0.38;;;6.40;99.90;;;;;;5013494;28;20052;-83
2021/03/13 03:47:05;;;;;;;9.90;1.23;;;6.40;99.90;;;;;;5029489;28;20507;-81
2021/03/13 03:49:32;;;;;;;1.75;0.50;;;6.40;99.90;;;;;;5012963;28;20034;-82
2021/03/13 03:51:59;;;;;;;2.88;1.23;;;6.40;99.90;;;;;;5013028;28;20033;-82
2021/03/13 03:54:25;;;;;;;1.08;0.35;;;6.40;99.90;;;;;;5030073;28;20075;-81
2021/03/13 03:56:53;;;;;;;2.08;0.32;;;6.30;99.90;;;;;;5029819;28;20116;-83
2021/03/13 03:59:22;;;;;;;2.83;0.85;;;6.30;99.90;;;;;;5028962;28;20380;-83
2021/03/13 04:01:50;;;;;;;2.17;0.32;;;6.30;99.90;;;;;;5029354;28;20551;-81
2021/03/13 04:04:22;;;;;;;2.38;0.40;;;6.20;99.90;;;;;;5029426;28;20033;-83
2021/03/13 04:06:49;;;;;;;1.45;0.50;;;6.20;99.90;;;;;;5030917;28;20030;-83
2021/03/13 04:09:18;;;;;;;4.30;0.47;;;6.30;99.90;;;;;;5029349;28;20051;-80
2021/03/13 04:11:44;;;;;;;;;;;6.20;99.90;;;;;;5013450;28;20428;-81
2021/03/13 04:14:10;;;;;;;2.38;0.50;;;6.30;99.90;;;;;;5012494;28;19963;-82
2021/03/13 04:16:36;;;;;;;3.78;1.25;;;6.20;99.90;;;;;;5012696;28;20034;-81
2021/03/13 04:19:03;;;;;;;2.75;0.77;;;6.30;99.90;;;;;;5029603;28;20030;-84
2021/03/13 04:21:30;;;;;;;2.40;0.47;;;6.30;99.90;;;;;;5013402;28;20044;-84
2021/03/13 04:23:56;;;;;;;4.10;0.63;;;6.20;99.90;;;;;;5013368;28;20097;-81
2021/03/13 04:26:22;;;;;;;2.25;0.22;;;6.30;99.90;;;;;;5029436;28;20057;-83
2021/03/13 04:28:49;;;;;;;2.50;0.60;;;6.30;99.90;;;;;;5029836;28;20029;-81
2021/03/13 04:31:17;;;;;;;4.35;0.77;;;6.20;99.90;;;;;;5029838;28;20029;-83
2021/03/13 04:33:43;;;;;;;4.40;0.45;;;6.30;99.90;;;;;;5029478;28;20453;-82
2021/03/13 04:36:11;;;;;;;1.92;0.40;;;6.30;99.80;;;;;;5029000;28;20033;-81
2021/03/13 04:38:38;;;;;;;5.72;0.60;;;6.20;99.70;;;;;;5029470;28;20029;-83
2021/03/13 04:41:05;;;;;;;3.17;0.50;;;6.20;99.70;;;;;;5029361;28;20026;-84
2021/03/13 04:43:31;;;;;;;1.55;0.32;;;6.10;99.70;;;;;;4996073;28;20080;-82
2021/03/13 04:45:59;;;;;;;0.57;0.35;;;6.10;99.70;;;;;;5028275;28;20558;-83
2021/03/13 04:48:31;;;;;;;1.90;0.40;;;6.00;99.70;;;;;;5011420;28;20030;-84
2021/03/13 04:51:02;;;;;;;2.88;0.85;;;5.90;99.80;;;;;;5028378;28;20048;-85
2021/03/13 04:53:28;;;;;;;1.15;0.30;;;5.80;99.80;;;;;;5028232;28;20025;-81
2021/03/13 04:55:54;;;;;;;3.22;0.52;;;5.80;99.90;;;;;;5011554;28;20041;-82
2021/03/13 04:58:20;;;;;;;0.65;0.30;;;5.80;99.90;;;;;;5028257;28;20018;-83
2021/03/13 05:00:46;;;;;;;1.27;0.30;;;5.80;99.90;;;;;;5028833;28;20487;-83
2021/03/13 05:03:13;;;;;;;1.20;0.73;;;5.90;99.90;;;;;;5029776;28;20028;-84
2021/03/13 05:05:40;;;;;;;1.75;0.30;;;5.90;99.90;;;;;;5011979;28;20122;-84
2021/03/13 05:08:06;;;;;;;4.80;0.60;;;6.00;99.90;;;;;;5028643;28;20026;-82
2021/03/13 05:10:32;;;;;;;2.80;0.75;;;6.00;99.90;;;;;;5011586;28;20060;-83
2021/03/13 05:12:58;;;;;;;3.10;0.50;;;6.00;99.90;;;;;;5028648;28;20038;-81
2021/03/13 05:15:23;;;;;;;1.95;0.40;;;6.00;99.90;;;;;;5011781;28;20034;-81
2021/03/13 05:17:50;;;;;;;6.25;0.68;;;6.00;99.90;;;;;;5029803;28;20029;-83
2021/03/13 05:20:16;;;;;;;7.78;0.70;;;5.90;99.90;;;;;;5029126;28;20076;-82
2021/03/13 05:22:46;;;;;;;2.47;0.40;;;6.00;99.90;;;;;;5011126;28;20029;-84
2021/03/13 05:25:12;;;;;;;2.50;0.38;;;6.10;99.90;;;;;;5029272;28;20026;-82
2021/03/13 05:27:38;;;;;;;3.03;0.50;;;6.10;99.90;;;;;;5028241;28;20037;-85
2021/03/13 05:30:06;;;;;;;2.88;0.60;;;6.10;99.90;;;;;;5028499;28;20140;-82
2021/03/13 05:32:32;;;;;;;5.45;1.02;;;6.20;99.90;;;;;;5028528;28;20435;-81
2021/03/13 05:34:58;;;;;;;2.65;0.45;;;6.20;99.80;;;;;;5028738;28;20152;-83
2021/03/13 05:37:23;;;;;;;4.22;0.70;;;6.20;99.90;;;;;;5029827;28;20029;-82
2021/03/13 05:39:49;;;;;;;2.92;0.57;;;6.20;99.80;;;;;;5011916;28;20018;-82
2021/03/13 05:42:16;;;;;;;1.98;0.47;;;6.20;99.80;;;;;;4995954;28;20131;-82
2021/03/13 05:44:43;;;;;;;2.72;0.80;;;6.20;99.80;;;;;;5027995;28;20340;-84
2021/03/13 05:47:10;;;;;;;2.17;0.40;;;6.20;99.70;;;;;;5030935;28;20025;-81
2021/03/13 05:49:41;;;;;;;3.33;0.80;;;6.20;99.70;;;;;;4999462;28;20525;-79
2021/03/13 05:52:07;;;;;;;5.10;0.60;;;6.30;99.70;;;;;;5031460;28;20029;-84
2021/03/13 05:54:34;;;;;;;2.97;1.27;;;6.30;99.60;;;;;;5033239;28;20064;-83
2021/03/13 05:57:07;;;;;;;5.93;0.70;;;6.30;99.50;;;;;;5031645;28;20040;-82
2021/03/13 05:59:34;;;;;;;2.97;0.50;;;6.30;99.50;;;;;;5032176;28;20037;-80
2021/03/13 06:02:04;;;;;;;4.15;0.85;;;6.20;99.30;;;;;;5031820;28;20026;-82
2021/03/13 06:04:29;;;;;;;4.63;0.70;;;6.20;99.20;;;;;;5032923;28;20060;-82
2021/03/13 06:06:56;;;;;;;3.13;0.40;;;6.10;99.10;;;;;;4999851;28;20037;-84
2021/03/13 06:09:21;;;;;;;3.47;0.70;;;6.00;99.10;;;;;;5032432;28;20128;-82
2021/03/13 06:11:47;;;;;;;3.08;0.57;;;5.90;99.20;;;;;;4999215;28;20124;-82
2021/03/13 06:14:13;;;;;;;3.28;0.60;;;5.90;99.20;;;;;;5031817;28;20128;-84
2021/03/13 06:16:39;;;;;;;5.88;0.63;;;5.80;99.30;;;;;;5014858;28;20026;-80
2021/03/13 06:19:04;;;;;;;4.70;0.85;;;5.70;99.30;;;;;;4999411;28;20064;-82
2021/03/13 06:21:36;;;;;;;3.20;0.77;;;5.70;99.40;;;;;;4998977;28;20032;-83
2021/03/13 06:24:12;;;;;;;5.82;0.70;;;5.70;99.40;;;;;;5031684;28;20029;-84
2021/03/13 06:26:50;;;;;;;2.72;0.80;;;5.70;99.50;;;;;;5031238;28;20026;-82
2021/03/13 06:29:16;;;;;;;3.78;0.52;;;5.70;99.50;;;;;;5031864;28;20121;-83
2021/03/13 06:31:41;;;;;;;4.75;0.95;;;5.70;99.50;;;;;;5015177;28;20041;-84
2021/03/13 06:34:07;;;;;;;3.47;0.65;;;5.70;99.50;;;;;;5031056;28;20049;-83
2021/03/13 06:36:33;;;;;;;2.70;0.30;;;5.70;99.50;;;;;;5015420;28;20026;-82
2021/03/13 06:38:59;;;;;;;6.75;1.67;;;5.70;99.50;;;;;;5031106;28;20029;-83
2021/03/13 06:41:24;;;;;;;2.47;0.43;;;5.70;99.70;;;;;;5014271;28;20051;-87
2021/03/13 06:43:58;;;;;;;1.63;0.45;;;5.70;99.50;;;;;;5015194;28;20384;-80
2021/03/13 06:46:30;;;;;;;5.78;0.75;;;5.70;99.40;;;;;;5029674;28;20033;-81
2021/03/13 06:48:57;;;;;;;1.88;0.45;;;5.70;99.40;;;;;;5029852;28;20565;-83
2021/03/13 06:51:39;;;;;;;7.40;1.05;;;5.70;99.30;;;;;;4997760;28;20037;-80
2021/03/13 06:54:15;;;;;;;5.43;1.00;;;5.70;99.30;;;;;;5031191;28;20025;-80
2021/03/13 06:56:56;;;;;;;7.47;1.00;;;5.70;99.30;;;;;;5030797;28;20037;-82
2021/03/13 06:59:37;;;;;;;7.18;1.25;;;5.70;99.20;;;;;;5030131;28;20076;-82
2021/03/13 07:02:04;;;;;;;4.88;0.95;;;5.60;99.10;;;;;;5015349;28;20022;-84
2021/03/13 07:04:50;;;;;;;2.00;0.55;;;5.60;99.10;;;;;;5031928;28;20032;-83
2021/03/13 07:07:35;;;;;;;9.85;1.27;;;5.50;99.10;;;;;;5030323;28;20037;-82
2021/03/13 07:10:07;;;;;;;3.03;0.52;;;5.50;99.10;;;;;;5030413;28;20094;-84
2021/03/13 07:12:41;;;;;;;2.75;0.55;;;5.50;99.10;;;;;;5031015;28;20092;-84
2021/03/13 07:15:18;;;;;;;3.42;0.95;;;5.50;99.10;;;;;;5032123;28;20017;-82
2021/03/13 07:18:01;;;;;;;3.08;0.80;;;5.50;99.20;;;;;;5031520;28;20022;-79
2021/03/13 07:20:27;;;;;;;5.60;1.45;;;5.60;99.10;;;;;;5030740;28;20028;-82
2021/03/13 07:22:58;;;;;;;2.60;0.75;;;5.60;99.00;;;;;;5031331;28;20033;-81
2021/03/13 07:25:26;;;;;;;4.43;0.93;;;5.60;98.90;;;;;;5030085;28;20025;-83
2021/03/13 07:28:02;;;;;;;5.90;1.13;;;5.60;98.80;;;;;;5031907;28;20756;-80
2021/03/13 07:30:30;;;;;;;3.45;0.90;;;5.60;98.80;;;;;;5030432;28;20132;-82
2021/03/13 07:33:05;;;;;;;3.13;0.85;;;5.60;98.80;;;;;;5028315;28;20168;-80
2021/03/13 07:35:48;;;;;;;5.25;0.88;;;5.60;98.90;;;;;;5028811;28;20562;-80
2021/03/13 07:38:15;;;;;;;6.20;0.90;;;5.60;99.00;;;;;;5027750;28;20027;-79
2021/03/13 07:40:46;;;;;;;4.18;0.93;;;5.70;99.10;;;;;;5011210;28;20479;-79
2021/03/13 07:43:13;;;;;;;3.53;0.80;;;5.80;99.10;;;;;;5029581;28;20022;-84
2021/03/13 07:45:40;;;;;;;8.23;1.30;;;5.90;99.10;;;;;;5030123;28;20036;-84
2021/03/13 07:48:11;;;;;;;4.88;0.90;;;6.00;99.00;;;;;;5029864;28;20021;-80
2021/03/13 07:50:39;;;;;;;7.05;0.85;;;6.20;99.40;;;;;;5030373;28;20069;-85
2021/03/13 07:53:06;;;;;;;11.00;1.40;;;6.50;99.00;;;;;;5030261;28;20029;-84
2021/03/13 07:55:33;;;;;;;4.53;1.08;;;6.60;98.80;;;;;;5029978;28;20121;-84
2021/03/13 07:58:00;;;;;;;4.45;1.20;;;7.10;99.60;;;;;;5029571;28;20025;-84
2021/03/13 08:00:43;;;;;;;5.03;0.90;;;7.70;99.20;;;;;;5012375;28;20476;-82
2021/03/13 08:03:28;;;;;;;6.18;1.30;;;8.10;98.10;;;;;;5028902;28;20553;-82
2021/03/13 08:06:06;;;;;;;5.85;1.30;;;8.20;97.10;;;;;;5028789;28;20423;-83
2021/03/13 08:08:50;;;;;;;5.18;1.98;;;8.10;96.40;;;;;;5027910;28;20037;-83
2021/03/13 08:11:24;;;;;;;6.80;1.90;;;7.90;96.10;;;;;;5012793;28;20403;-69
2021/03/13 08:13:52;;;;;;;5.13;1.08;;;7.90;96.70;;;;;;5029992;28;20049;-84
2021/03/13 08:16:33;;;;;;;5.03;1.00;;;8.20;96.90;;;;;;5030038;28;20025;-86
2021/03/13 08:19:00;;;;;;;1.80;0.75;;;8.40;95.90;;;;;;5013234;28;20021;-86
2021/03/13 08:21:25;;;;;;;6.07;1.77;;;8.50;95.60;;;;;;5029691;28;20361;-82
2021/03/13 08:23:56;;;;;;;6.55;0.95;;;8.60;95.30;;;;;;5028747;28;20128;-82
2021/03/13 08:26:34;;;;;;;5.72;1.10;;;8.70;95.30;;;;;;5012050;28;20056;-86
2021/03/13 08:29:10;;;;;;;5.35;0.90;;;9.00;95.50;;;;;;5028549;28;20554;-84
2021/03/13 08:31:37;;;;;;;3.83;1.00;;;9.40;95.00;;;;;;5028531;28;20028;-86
2021/03/13 08:34:03;;;;;;;6.32;1.40;;;10.00;95.70;;;;;;5027996;28;20042;-84
2021/03/13 08:36:53;;;;;;;4.50;0.85;;;10.80;94.90;;;;;;5027955;28;20494;-85
2021/03/13 08:39:20;;;;;;;3.25;0.82;;;11.60;94.00;;;;;;5029331;28;20040;-82
2021/03/13 08:41:57;;;;;;;6.93;1.00;;;12.50;93.40;;;;;;5011866;28;20048;-86
2021/03/13 08:44:25;;;;;;;5.43;1.17;;;12.90;90.50;;;;;;5026968;28;20025;-84
2021/03/13 08:47:12;;;;;;;6.22;1.15;;;13.00;90.20;;;;;;5028678;28;20035;-69
2021/03/13 08:49:48;;;;;;;9.30;1.48;;;13.40;90.00;;;;;;5011359;28;20518;-82
2021/03/13 08:52:18;;;;;;;4.95;1.67;;;14.10;89.60;;;;;;5011091;28;20071;-86
2021/03/13 08:54:47;;;;;;;5.03;1.10;;;14.20;84.80;;;;;;5026665;28;20545;-82
2021/03/13 08:57:15;;;;;;;5.90;1.17;;;13.70;80.80;;;;;;5028639;28;20026;-84
2021/03/13 08:59:43;;;;;;;7.55;1.80;;;12.80;79.20;;;;;;5028665;28;20049;-82
2021/03/13 09:02:17;;;;;;;6.20;1.40;;;12.10;79.80;;;;;;5027652;28;20028;-83
2021/03/13 09:04:51;;;;;;;5.90;1.00;;;11.40;80.40;;;;;;5029786;28;20021;-86
2021/03/13 09:07:22;;;;;;;3.83;0.77;;;10.80;81.10;;;;;;5029568;28;20049;-83
2021/03/13 09:09:49;;;;;;;6.40;1.33;;;10.40;81.70;;;;;;5027549;28;20021;-87
2021/03/13 09:12:17;;;;;;;7.32;1.27;;;10.20;82.50;;;;;;4994220;28;20029;-86
2021/03/13 09:14:50;;;;;;;3.20;0.93;;;10.10;83.90;;;;;;5010128;28;20499;-84
2021/03/13 09:17:18;;;;;;;7.68;1.38;;;10.40;84.90;;;;;;5028332;28;20034;-84
2021/03/13 09:19:46;;;;;;;3.60;1.05;;;10.70;84.40;;;;;;5012682;28;20025;-85
2021/03/13 09:22:24;;;;;;;7.85;1.20;;;10.90;83.60;;;;;;5029655;28;20104;-84
2021/03/13 09:25:01;;;;;;;7.63;1.23;;;11.30;84.20;;;;;;5032572;28;20025;-83
2021/03/13 09:27:37;;;;;;;3.67;1.23;;;12.10;84.20;;;;;;5031527;28;20064;-83
2021/03/13 09:30:06;;;;;;;6.65;1.30;;;13.00;84.40;;;;;;5031558;28;20018;-89
2021/03/13 09:32:32;;;;;;;4.78;1.30;;;13.90;83.10;;;;;;5031569;28;20075;-84
2021/03/13 09:34:58;;;;;;;3.97;1.02;;;14.40;80.30;;;;;;5031611;28;20080;-83
2021/03/13 09:37:29;;;;;;;8.65;1.33;;;14.90;79.10;;;;;;4998924;28;20472;-86
2021/03/13 09:40:00;;;;;;;4.78;1.30;;;15.50;77.10;;;;;;5032408;28;20096;-83
2021/03/13 09:42:27;;;;;;;5.40;1.15;;;16.00;74.20;;;;;;5031554;28;20026;-89
2021/03/13 09:44:56;;;;;;;5.40;1.63;;;16.30;71.90;;;;;;5031475;28;20112;-84
2021/03/13 09:47:43;;;;;;;5.35;1.20;;;16.20;69.90;;;;;;5030995;28;20075;-78
2021/03/13 09:50:24;;;;;;;6.90;1.67;;;15.50;68.00;;;;;;5030549;28;20021;-85
2021/03/13 09:52:51;;;;;;;3.65;0.93;;;14.80;67.20;;;;;;5032183;28;20108;-86
2021/03/13 09:55:23;;;;;;;6.13;1.00;;;14.00;67.90;;;;;;5013696;28;20040;-85
2021/03/13 09:57:57;;;;;;;7.72;1.55;;;13.40;68.50;;;;;;5030835;28;20035;-80
2021/03/13 10:00:24;;;;;;;7.55;1.70;;;13.00;69.30;;;;;;5032892;28;20036;-84
2021/03/13 10:02:51;;;;;;;6.65;1.60;;;13.00;70.90;;;;;;5031344;28;20029;-86
2021/03/13 10:05:18;;;;;;;8.82;1.50;;;13.00;71.40;;;;;;5031736;28;20029;-82
2021/03/13 10:07:49;;;;;;;5.78;1.38;;;13.40;73.00;;;;;;5030755;28;20342;-85
2021/03/13 10:10:25;;;;;;;7.97;1.75;;;14.30;72.70;;;;;;5014409;28;20072;-85
2021/03/13 10:12:53;;;;;;;5.78;1.38;;;14.90;71.00;;;;;;5030539;28;20055;-85
2021/03/13 10:15:25;;;;;;;3.75;1.35;;;15.40;70.10;;;;;;5030124;28;20079;-86
2021/03/13 10:18:04;;;;;;;5.45;1.33;;;15.50;67.50;;;;;;5030286;28;20042;-85
2021/03/13 10:20:31;;;;;;;8.63;1.33;;;15.60;67.70;;;;;;5030916;28;20017;-85
2021/03/13 10:23:06;;;;;;;4.75;1.10;;;16.00;68.50;;;;;;5029721;28;20049;-84
2021/03/13 10:25:33;;;;;;;5.57;1.02;;;16.50;66.80;;;;;;5029761;28;20480;-87
2021/03/13 10:28:04;;;;;;;3.63;0.98;;;17.00;66.80;;;;;;5013049;28;20041;-86
2021/03/13 10:30:30;;;;;;;4.00;1.30;;;17.60;65.70;;;;;;5013492;28;20032;-83
2021/03/13 10:32:55;;;;;;;4.50;1.33;;;18.20;65.40;;;;;;5029385;28;20132;-85
2021/03/13 10:35:29;;;;;;;6.22;1.50;;;18.70;62.40;;;;;;5012746;28;20034;-84
2021/03/13 10:37:58;;;;;;;5.10;1.20;;;18.80;61.20;;;;;;5030302;28;20033;-85
2021/03/13 10:40:37;;;;;;;4.68;1.30;;;19.20;61.60;;;;;;5029230;28;20117;-84
2021/03/13 10:43:36;;;;;;;6.65;1.70;;;19.60;60.40;;;;;;5028697;28;20105;-79
2021/03/13 10:46:06;;;;;;;5.33;1.80;;;19.90;58.80;;;;;;5029137;28;20091;-87
2021/03/13 10:48:38;;;;;;;4.85;1.85;;;20.00;58.00;;;;;;5028896;28;20039;-85
2021/03/13 10:51:05;;;;;;;5.90;1.70;;;20.20;57.40;;;;;;5030521;28;20411;-83
2021/03/13 10:53:33;;;;;;;5.95;1.50;;;20.20;55.50;;;;;;5029781;28;20191;-86
2021/03/13 10:56:05;;;;;;;6.07;1.98;;;20.30;56.10;;;;;;5030149;28;20032;-86
2021/03/13 10:58:35;;;;;;;13.77;2.20;;;20.40;55.00;;;;;;5028877;28;20646;-85
2021/03/13 11:01:05;;;;;;;6.13;1.58;;;20.10;54.20;;;;;;5028500;28;20029;-85
2021/03/13 11:03:31;;;;;;;;;;;19.60;53.60;;;;;;5029897;28;20411;-85
2021/03/13 11:05:57;;;;;;;8.77;3.42;;;19.30;55.30;;;;;;5012613;28;19936;-85
2021/03/13 11:08:26;;;;;;;9.30;4.57;;;19.40;56.40;;;;;;5030397;28;20064;-85
2021/03/13 11:10:53;;;;;;;6.00;2.42;;;19.80;55.60;;;;;;5029788;28;20041;-86
2021/03/13 11:13:20;;;;;;;10.98;3.65;;;19.80;55.10;;;;;;5028876;28;20508;-86
2021/03/13 11:15:46;;;;;;;6.82;2.50;;;19.80;54.90;;;;;;5029486;28;20116;-83
2021/03/13 11:18:12;;;;;;;9.23;2.80;;;20.10;54.90;;;;;;5028675;28;20033;-87
2021/03/13 11:20:38;;;;;;;7.82;1.92;;;20.30;53.60;;;;;;5030250;28;20060;-86
2021/03/13 11:23:05;;;;;;;6.53;2.53;;;20.20;53.40;;;;;;5013272;28;20075;-86
2021/03/13 11:25:31;;;;;;;7.97;2.70;;;20.00;53.20;;;;;;5013445;28;20535;-86
2021/03/13 11:27:57;;;;;;;11.40;3.10;;;19.50;52.80;;;;;;5030245;28;20081;-86
2021/03/13 11:30:23;;;;;;;11.98;2.63;;;19.00;52.40;;;;;;5029338;28;20022;-85
2021/03/13 11:32:50;;;;;;;7.35;2.25;;;18.70;53.30;;;;;;5028524;28;20079;-86
2021/03/13 11:35:18;;;;;;;11.18;2.65;;;18.60;53.30;;;;;;5029954;28;20472;-84
2021/03/13 11:37:44;;;;;;;9.05;3.03;;;18.50;53.10;;;;;;5028241;28;20037;-86
2021/03/13 11:40:11;;;;;;;11.25;2.72;;;18.60;53.60;;;;;;5011094;28;20033;-83
2021/03/13 11:42:37;;;;;;;8.55;2.53;;;18.70;53.20;;;;;;5029154;28;20029;-87
2021/03/13 11:45:09;;;;;;;10.20;3.08;;;18.70;53.10;;;;;;5010901;28;20022;-84
2021/03/13 11:47:36;;;;;;;9.35;2.78;;;18.60;52.50;;;;;;5029132;28;20056;-83
2021/03/13 11:50:05;;;;;;;8.65;2.92;;;18.70;52.50;;;;;;5027880;28;20071;-84
2021/03/13 11:52:30;;;;;;;7.60;2.88;;;19.00;52.70;;;;;;5029469;28;20030;-84
2021/03/13 11:54:56;;;;;;;10.77;3.00;;;19.40;51.50;;;;;;5011323;28;20099;-87
2021/03/13 11:57:22;;;;;;;9.70;3.03;;;19.70;51.70;;;;;;5011365;28;20120;-86
2021/03/13 11:59:48;;;;;;;12.88;3.05;;;20.00;50.90;;;;;;5011311;28;20033;-84
2021/03/13 12:02:15;;;;;;;9.38;2.45;;;20.10;50.20;;;;;;5011018;28;20044;-83
2021/03/13 12:04:42;;;;;;;9.10;2.95;;;20.10;49.60;;;;;;5027775;28;20041;-85
2021/03/13 12:07:08;;;;;;;7.75;2.53;;;20.10;49.00;;;;;;5027543;28;20480;-85
2021/03/13 12:09:35;;;;;;;9.48;2.70;;;19.80;47.80;;;;;;5026962;28;20029;-83
2021/03/13 12:12:03;;;;;;;15.70;4.72;;;19.40;47.90;;;;;;5029358;28;20052;-85
2021/03/13 12:14:29;;;;;;;17.40;6.20;;;19.20;48.30;;;;;;4994526;28;20130;-86
2021/03/13 12:16:55;;;;;;;22.00;7.85;;;18.90;48.70;;;;;;4994833;28;20061;-85
2021/03/13 12:19:22;;;;;;;11.23;3.10;;;18.90;49.40;;;;;;5028268;28;20032;-83
2021/03/13 12:21:50;;;;;;;16.80;3.20;;;19.30;50.10;;;;;;5029161;28;20017;-84
2021/03/13 12:24:16;;;;;;;10.38;1.95;;;19.80;50.00;;;;;;5028355;28;20021;-85
2021/03/13 12:26:42;;;;;;;9.13;2.90;;;20.00;48.10;;;;;;5027624;28;20099;-86
2021/03/13 12:29:08;;;;;;;7.32;2.08;;;19.30;46.70;;;;;;5011665;28;20036;-83
2021/03/13 12:31:34;;;;;;;9.75;2.20;;;18.50;47.30;;;;;;5011296;28;20030;-85
2021/03/13 12:33:59;;;;;;;8.52;1.70;;;18.00;47.60;;;;;;5012420;28;20480;-85
2021/03/13 12:36:26;;;;;;;8.65;2.28;;;17.50;48.40;;;;;;4995214;28;20068;-83
2021/03/13 12:38:51;;;;;;;8.05;1.83;;;17.70;49.80;;;;;;4995776;28;20029;-87
2021/03/13 12:41:17;;;;;;;5.55;1.45;;;18.10;50.20;;;;;;5010502;28;20134;-87
2021/03/13 12:43:43;;;;;;;7.50;1.48;;;18.00;49.20;;;;;;5026869;28;20437;-84
2021/03/13 12:46:18;;;;;;;6.10;1.65;;;17.50;48.30;;;;;;5026883;28;20029;-83
2021/03/13 12:48:46;;;;;;;5.95;1.58;;;17.00;48.60;;;;;;5011804;28;20484;-86
2021/03/13 12:51:13;;;;;;;5.45;1.98;;;16.60;49.70;;;;;;5011155;28;20041;-87
2021/03/13 12:53:39;;;;;;;6.45;1.45;;;16.80;50.60;;;;;;5027556;28;20063;-83
2021/03/13 12:56:05;;;;;;;7.00;1.30;;;17.10;50.40;;;;;;4993855;28;20064;-85
2021/03/13 12:58:31;;;;;;;3.30;1.40;;;17.20;50.20;;;;;;5010789;28;20044;-79
2021/03/13 13:00:56;;;;;;;6.65;2.13;;;17.50;50.60;;;;;;5011126;28;20037;-85
2021/03/13 13:03:23;;;;;;;3.75;1.20;;;18.00;50.80;;;;;;5010525;28;20481;-84